sensor_id;sensor_type;location;lat;lon;timestamp;P1;durP1;ratioP1;P2;durP2;ratioP2
10645;SDS011;5371;49.782;9.932;2022-07-30T00:00:46;9.65;;;8.70;;
10645;SDS011;5371;49.782;9.932;2022-07-30T00:03:14;11.48;;;8.90;;
10645;SDS011;5371;49.782;9.932;2022-07-30T00:05:42;11.65;;;9.23;;
10645;SDS011;5371;49.782;9.932;2022-07-30T00:08:08;9.73;;;8.82;;
10645;SDS011;5371;49.782;9.932;2022-07-30T00:10:35;9.65;;;8.70;;
10645;SDS011;5371;49.782;9.932;2022-07-30T00:13:03;11.35;;;9.15;;
10645;SDS011;5371;49.782;9.932;2022-07-30T00:15:30;9.90;;;9.00;;
10645;SDS011;5371;49.782;9.932;2022-07-30T00:17:57;10.25;;;9.25;;
10645;SDS011;5371;49.782;9.932;2022-07-30T00:20:25;10.38;;;9.35;;
10645;SDS011;5371;49.782;9.932;2022-07-30T00:22:52;10.98;;;9.98;;
10645;SDS011;5371;49.782;9.932;2022-07-30T00:25:19;9.95;;;8.70;;
10645;SDS011;5371;49.782;9.932;2022-07-30T00:27:46;10.80;;;9.77;;
10645;SDS011;5371;49.782;9.932;2022-07-30T00:30:13;10.60;;;9.50;;
10645;SDS011;5371;49.782;9.932;2022-07-30T00:32:42;9.80;;;8.80;;
10645;SDS011;5371;49.782;9.932;2022-07-30T00:35:08;9.73;;;8.82;;
10645;SDS011;5371;49.782;9.932;2022-07-30T00:37:37;10.00;;;8.85;;
10645;SDS011;5371;49.782;9.932;2022-07-30T00:40:04;10.07;;;9.07;;
10645;SDS011;5371;49.782;9.932;2022-07-30T00:42:36;10.18;;;9.02;;
10645;SDS011;5371;49.782;9.932;2022-07-30T00:45:05;9.45;;;8.50;;
10645;SDS011;5371;49.782;9.932;2022-07-30T00:47:33;10.45;;;9.18;;
10645;SDS011;5371;49.782;9.932;2022-07-30T00:50:00;9.88;;;9.07;;
10645;SDS011;5371;49.782;9.932;2022-07-30T00:52:28;10.57;;;8.70;;
10645;SDS011;5371;49.782;9.932;2022-07-30T00:54:58;10.00;;;8.98;;
10645;SDS011;5371;49.782;9.932;2022-07-30T00:57:25;12.02;;;10.10;;
10645;SDS011;5371;49.782;9.932;2022-07-30T00:59:53;11.13;;;10.05;;
10645;SDS011;5371;49.782;9.932;2022-07-30T01:02:20;11.55;;;10.25;;
10645;SDS011;5371;49.782;9.932;2022-07-30T01:04:47;12.93;;;11.50;;
10645;SDS011;5371;49.782;9.932;2022-07-30T01:07:14;13.55;;;10.82;;
10645;SDS011;5371;49.782;9.932;2022-07-30T01:09:42;11.70;;;10.70;;
10645;SDS011;5371;49.782;9.932;2022-07-30T01:12:10;12.88;;;11.35;;
10645;SDS011;5371;49.782;9.932;2022-07-30T01:14:41;13.65;;;12.35;;
10645;SDS011;5371;49.782;9.932;2022-07-30T01:17:09;12.88;;;11.57;;
10645;SDS011;5371;49.782;9.932;2022-07-30T01:19:36;12.73;;;11.43;;
10645;SDS011;5371;49.782;9.932;2022-07-30T01:22:19;12.50;;;11.23;;
10645;SDS011;5371;49.782;9.932;2022-07-30T01:24:55;11.05;;;9.98;;
10645;SDS011;5371;49.782;9.932;2022-07-30T01:27:29;10.48;;;9.50;;
10645;SDS011;5371;49.782;9.932;2022-07-30T01:29:59;10.70;;;9.27;;
10645;SDS011;5371;49.782;9.932;2022-07-30T01:32:28;10.40;;;9.40;;
10645;SDS011;5371;49.782;9.932;2022-07-30T01:34:56;10.52;;;9.57;;
10645;SDS011;5371;49.782;9.932;2022-07-30T01:37:26;11.20;;;10.15;;
10645;SDS011;5371;49.782;9.932;2022-07-30T01:39:56;10.98;;;9.88;;
10645;SDS011;5371;49.782;9.932;2022-07-30T01:42:26;11.25;;;9.80;;
10645;SDS011;5371;49.782;9.932;2022-07-30T01:44:56;11.50;;;10.30;;
10645;SDS011;5371;49.782;9.932;2022-07-30T01:47:24;11.50;;;10.43;;
10645;SDS011;5371;49.782;9.932;2022-07-30T01:49:54;10.63;;;9.52;;
10645;SDS011;5371;49.782;9.932;2022-07-30T01:52:22;11.02;;;9.93;;
10645;SDS011;5371;49.782;9.932;2022-07-30T01:54:55;12.10;;;10.93;;
10645;SDS011;5371;49.782;9.932;2022-07-30T01:57:23;11.07;;;10.07;;
10645;SDS011;5371;49.782;9.932;2022-07-30T01:59:54;13.10;;;10.55;;
10645;SDS011;5371;49.782;9.932;2022-07-30T02:02:30;11.32;;;10.30;;
10645;SDS011;5371;49.782;9.932;2022-07-30T02:04:57;11.43;;;10.32;;
10645;SDS011;5371;49.782;9.932;2022-07-30T02:07:26;10.52;;;9.45;;
10645;SDS011;5371;49.782;9.932;2022-07-30T02:10:07;10.90;;;9.82;;
10645;SDS011;5371;49.782;9.932;2022-07-30T02:12:42;11.35;;;10.35;;
10645;SDS011;5371;49.782;9.932;2022-07-30T02:15:19;11.52;;;10.32;;
10645;SDS011;5371;49.782;9.932;2022-07-30T02:17:53;11.18;;;10.02;;
10645;SDS011;5371;49.782;9.932;2022-07-30T02:20:25;12.05;;;10.95;;
10645;SDS011;5371;49.782;9.932;2022-07-30T02:22:56;10.75;;;9.75;;
10645;SDS011;5371;49.782;9.932;2022-07-30T02:25:26;11.57;;;10.15;;
10645;SDS011;5371;49.782;9.932;2022-07-30T02:27:59;11.75;;;10.55;;
10645;SDS011;5371;49.782;9.932;2022-07-30T02:30:33;11.82;;;10.70;;
10645;SDS011;5371;49.782;9.932;2022-07-30T02:33:03;11.52;;;10.38;;
10645;SDS011;5371;49.782;9.932;2022-07-30T02:35:32;12.43;;;11.10;;
10645;SDS011;5371;49.782;9.932;2022-07-30T02:38:01;11.68;;;10.55;;
10645;SDS011;5371;49.782;9.932;2022-07-30T02:40:30;13.43;;;11.98;;
10645;SDS011;5371;49.782;9.932;2022-07-30T02:42:58;13.25;;;11.85;;
10645;SDS011;5371;49.782;9.932;2022-07-30T02:45:27;13.13;;;11.70;;
10645;SDS011;5371;49.782;9.932;2022-07-30T02:47:58;13.02;;;11.68;;
10645;SDS011;5371;49.782;9.932;2022-07-30T02:50:30;12.45;;;11.15;;
10645;SDS011;5371;49.782;9.932;2022-07-30T02:52:59;12.75;;;11.45;;
10645;SDS011;5371;49.782;9.932;2022-07-30T02:55:29;12.68;;;11.35;;
10645;SDS011;5371;49.782;9.932;2022-07-30T02:57:58;13.38;;;11.98;;
10645;SDS011;5371;49.782;9.932;2022-07-30T03:00:27;13.55;;;11.85;;
10645;SDS011;5371;49.782;9.932;2022-07-30T03:02:58;12.63;;;11.32;;
10645;SDS011;5371;49.782;9.932;2022-07-30T03:05:26;13.07;;;11.52;;
10645;SDS011;5371;49.782;9.932;2022-07-30T03:07:54;13.30;;;11.90;;
10645;SDS011;5371;49.782;9.932;2022-07-30T03:10:27;12.95;;;11.63;;
10645;SDS011;5371;49.782;9.932;2022-07-30T03:12:57;12.98;;;11.77;;
10645;SDS011;5371;49.782;9.932;2022-07-30T03:15:26;13.05;;;11.65;;
10645;SDS011;5371;49.782;9.932;2022-07-30T03:17:54;11.65;;;10.55;;
10645;SDS011;5371;49.782;9.932;2022-07-30T03:20:26;12.63;;;11.32;;
10645;SDS011;5371;49.782;9.932;2022-07-30T03:22:56;15.10;;;13.40;;
10645;SDS011;5371;49.782;9.932;2022-07-30T03:25:27;16.00;;;13.45;;
10645;SDS011;5371;49.782;9.932;2022-07-30T03:27:58;16.50;;;14.43;;
10645;SDS011;5371;49.782;9.932;2022-07-30T03:30:27;17.35;;;13.80;;
10645;SDS011;5371;49.782;9.932;2022-07-30T03:32:55;13.63;;;12.23;;
10645;SDS011;5371;49.782;9.932;2022-07-30T03:35:22;14.43;;;12.68;;
10645;SDS011;5371;49.782;9.932;2022-07-30T03:37:52;14.65;;;13.15;;
10645;SDS011;5371;49.782;9.932;2022-07-30T03:40:21;15.35;;;13.68;;
10645;SDS011;5371;49.782;9.932;2022-07-30T03:42:48;16.63;;;13.40;;
10645;SDS011;5371;49.782;9.932;2022-07-30T03:45:20;14.52;;;12.88;;
10645;SDS011;5371;49.782;9.932;2022-07-30T03:47:49;15.57;;;13.82;;
10645;SDS011;5371;49.782;9.932;2022-07-30T03:50:17;14.27;;;12.68;;
10645;SDS011;5371;49.782;9.932;2022-07-30T03:52:44;14.18;;;12.07;;
10645;SDS011;5371;49.782;9.932;2022-07-30T03:55:16;13.90;;;12.18;;
10645;SDS011;5371;49.782;9.932;2022-07-30T03:57:46;15.23;;;13.10;;
10645;SDS011;5371;49.782;9.932;2022-07-30T04:00:15;13.77;;;12.38;;
10645;SDS011;5371;49.782;9.932;2022-07-30T04:02:47;13.18;;;11.77;;
10645;SDS011;5371;49.782;9.932;2022-07-30T04:05:27;14.07;;;11.55;;
10645;SDS011;5371;49.782;9.932;2022-07-30T04:07:58;12.13;;;10.80;;
10645;SDS011;5371;49.782;9.932;2022-07-30T04:10:30;11.30;;;10.20;;
10645;SDS011;5371;49.782;9.932;2022-07-30T04:12:57;11.93;;;9.13;;
10645;SDS011;5371;49.782;9.932;2022-07-30T04:15:25;11.25;;;9.20;;
10645;SDS011;5371;49.782;9.932;2022-07-30T04:17:54;11.50;;;10.40;;
10645;SDS011;5371;49.782;9.932;2022-07-30T04:20:28;11.32;;;10.23;;
10645;SDS011;5371;49.782;9.932;2022-07-30T04:23:00;12.88;;;10.68;;
10645;SDS011;5371;49.782;9.932;2022-07-30T04:25:28;11.20;;;10.10;;
10645;SDS011;5371;49.782;9.932;2022-07-30T04:27:58;10.27;;;9.27;;
10645;SDS011;5371;49.782;9.932;2022-07-30T04:30:26;10.68;;;9.57;;
10645;SDS011;5371;49.782;9.932;2022-07-30T04:32:54;9.93;;;8.98;;
10645;SDS011;5371;49.782;9.932;2022-07-30T04:35:39;9.32;;;8.52;;
10645;SDS011;5371;49.782;9.932;2022-07-30T04:38:16;10.32;;;9.32;;
10645;SDS011;5371;49.782;9.932;2022-07-30T04:40:50;10.32;;;9.32;;
10645;SDS011;5371;49.782;9.932;2022-07-30T04:43:18;9.70;;;8.80;;
10645;SDS011;5371;49.782;9.932;2022-07-30T04:45:45;10.70;;;9.70;;
10645;SDS011;5371;49.782;9.932;2022-07-30T04:48:12;9.95;;;9.05;;
10645;SDS011;5371;49.782;9.932;2022-07-30T04:50:40;10.02;;;8.38;;
10645;SDS011;5371;49.782;9.932;2022-07-30T04:53:14;8.90;;;8.10;;
10645;SDS011;5371;49.782;9.932;2022-07-30T04:55:50;8.65;;;7.85;;
10645;SDS011;5371;49.782;9.932;2022-07-30T04:58:19;9.38;;;8.43;;
10645;SDS011;5371;49.782;9.932;2022-07-30T05:00:52;7.90;;;7.20;;
10645;SDS011;5371;49.782;9.932;2022-07-30T05:03:26;9.05;;;8.15;;
10645;SDS011;5371;49.782;9.932;2022-07-30T05:05:55;8.77;;;8.00;;
10645;SDS011;5371;49.782;9.932;2022-07-30T05:08:24;8.82;;;7.93;;
10645;SDS011;5371;49.782;9.932;2022-07-30T05:10:55;9.70;;;8.80;;
10645;SDS011;5371;49.782;9.932;2022-07-30T05:13:22;10.00;;;9.10;;
10645;SDS011;5371;49.782;9.932;2022-07-30T05:15:49;10.52;;;9.40;;
10645;SDS011;5371;49.782;9.932;2022-07-30T05:18:18;8.82;;;8.02;;
10645;SDS011;5371;49.782;9.932;2022-07-30T05:20:45;10.20;;;9.25;;
10645;SDS011;5371;49.782;9.932;2022-07-30T05:23:20;10.50;;;9.40;;
10645;SDS011;5371;49.782;9.932;2022-07-30T05:26:11;10.75;;;9.65;;
10645;SDS011;5371;49.782;9.932;2022-07-30T05:28:45;11.48;;;9.13;;
10645;SDS011;5371;49.782;9.932;2022-07-30T05:31:13;9.65;;;8.75;;
10645;SDS011;5371;49.782;9.932;2022-07-30T05:33:44;10.75;;;9.40;;
10645;SDS011;5371;49.782;9.932;2022-07-30T05:36:15;10.45;;;9.43;;
10645;SDS011;5371;49.782;9.932;2022-07-30T05:38:42;9.38;;;8.48;;
10645;SDS011;5371;49.782;9.932;2022-07-30T05:41:28;9.30;;;8.30;;
10645;SDS011;5371;49.782;9.932;2022-07-30T05:44:24;9.43;;;8.52;;
10645;SDS011;5371;49.782;9.932;2022-07-30T05:46:51;9.35;;;8.45;;
10645;SDS011;5371;49.782;9.932;2022-07-30T05:49:18;10.00;;;9.10;;
10645;SDS011;5371;49.782;9.932;2022-07-30T05:51:45;9.93;;;9.00;;
10645;SDS011;5371;49.782;9.932;2022-07-30T05:54:12;9.63;;;8.75;;
10645;SDS011;5371;49.782;9.932;2022-07-30T05:57:13;10.70;;;8.93;;
10645;SDS011;5371;49.782;9.932;2022-07-30T05:59:40;9.10;;;8.20;;
10645;SDS011;5371;49.782;9.932;2022-07-30T06:02:25;9.98;;;9.07;;
10645;SDS011;5371;49.782;9.932;2022-07-30T06:05:21;9.68;;;8.70;;
10645;SDS011;5371;49.782;9.932;2022-07-30T06:07:48;9.68;;;8.80;;
10645;SDS011;5371;49.782;9.932;2022-07-30T06:10:18;9.75;;;8.75;;
10645;SDS011;5371;49.782;9.932;2022-07-30T06:12:47;9.75;;;8.30;;
10645;SDS011;5371;49.782;9.932;2022-07-30T06:15:16;9.85;;;8.15;;
10645;SDS011;5371;49.782;9.932;2022-07-30T06:17:44;8.82;;;7.93;;
10645;SDS011;5371;49.782;9.932;2022-07-30T06:20:19;8.48;;;7.68;;
10645;SDS011;5371;49.782;9.932;2022-07-30T06:22:57;8.25;;;7.45;;
10645;SDS011;5371;49.782;9.932;2022-07-30T06:25:34;7.78;;;7.07;;
10645;SDS011;5371;49.782;9.932;2022-07-30T06:28:03;9.25;;;7.40;;
10645;SDS011;5371;49.782;9.932;2022-07-30T06:30:30;8.52;;;7.72;;
10645;SDS011;5371;49.782;9.932;2022-07-30T06:32:59;8.60;;;7.70;;
10645;SDS011;5371;49.782;9.932;2022-07-30T06:35:26;8.18;;;7.43;;
10645;SDS011;5371;49.782;9.932;2022-07-30T06:37:53;7.95;;;7.25;;
10645;SDS011;5371;49.782;9.932;2022-07-30T06:40:23;7.85;;;7.15;;
10645;SDS011;5371;49.782;9.932;2022-07-30T06:43:03;8.52;;;7.60;;
10645;SDS011;5371;49.782;9.932;2022-07-30T06:45:42;8.93;;;7.55;;
10645;SDS011;5371;49.782;9.932;2022-07-30T06:48:21;7.45;;;6.75;;
10645;SDS011;5371;49.782;9.932;2022-07-30T06:50:48;8.20;;;7.40;;
10645;SDS011;5371;49.782;9.932;2022-07-30T06:53:15;7.95;;;7.25;;
10645;SDS011;5371;49.782;9.932;2022-07-30T06:56:03;9.18;;;8.27;;
10645;SDS011;5371;49.782;9.932;2022-07-30T06:58:42;8.32;;;7.47;;
10645;SDS011;5371;49.782;9.932;2022-07-30T07:01:38;9.13;;;8.23;;
10645;SDS011;5371;49.782;9.932;2022-07-30T07:04:05;8.95;;;8.15;;
10645;SDS011;5371;49.782;9.932;2022-07-30T07:06:34;9.13;;;8.23;;
10645;SDS011;5371;49.782;9.932;2022-07-30T07:09:01;10.38;;;9.10;;
10645;SDS011;5371;49.782;9.932;2022-07-30T07:11:35;10.25;;;9.25;;
10645;SDS011;5371;49.782;9.932;2022-07-30T07:14:08;10.65;;;9.55;;
10645;SDS011;5371;49.782;9.932;2022-07-30T07:16:35;10.60;;;9.60;;
10645;SDS011;5371;49.782;9.932;2022-07-30T07:19:27;11.30;;;10.15;;
10645;SDS011;5371;49.782;9.932;2022-07-30T07:21:54;12.23;;;10.95;;
10645;SDS011;5371;49.782;9.932;2022-07-30T07:24:21;11.50;;;10.30;;
10645;SDS011;5371;49.782;9.932;2022-07-30T07:26:57;12.00;;;9.75;;
10645;SDS011;5371;49.782;9.932;2022-07-30T07:29:26;11.63;;;10.43;;
10645;SDS011;5371;49.782;9.932;2022-07-30T07:31:53;11.48;;;10.23;;
10645;SDS011;5371;49.782;9.932;2022-07-30T07:34:20;10.80;;;9.80;;
10645;SDS011;5371;49.782;9.932;2022-07-30T07:36:47;9.20;;;8.30;;
10645;SDS011;5371;49.782;9.932;2022-07-30T07:39:15;10.70;;;7.90;;
10645;SDS011;5371;49.782;9.932;2022-07-30T07:41:43;9.30;;;8.40;;
10645;SDS011;5371;49.782;9.932;2022-07-30T07:44:10;8.82;;;7.93;;
10645;SDS011;5371;49.782;9.932;2022-07-30T07:46:39;9.25;;;8.23;;
10645;SDS011;5371;49.782;9.932;2022-07-30T07:49:06;8.98;;;8.07;;
10645;SDS011;5371;49.782;9.932;2022-07-30T07:51:37;8.32;;;7.53;;
10645;SDS011;5371;49.782;9.932;2022-07-30T07:54:07;7.22;;;6.53;;
10645;SDS011;5371;49.782;9.932;2022-07-30T07:56:35;7.40;;;6.70;;
10645;SDS011;5371;49.782;9.932;2022-07-30T07:59:02;6.57;;;6.05;;
10645;SDS011;5371;49.782;9.932;2022-07-30T08:01:29;7.97;;;6.22;;
10645;SDS011;5371;49.782;9.932;2022-07-30T08:04:17;6.03;;;5.43;;
10645;SDS011;5371;49.782;9.932;2022-07-30T08:07:02;6.68;;;5.30;;
10645;SDS011;5371;49.782;9.932;2022-07-30T08:09:50;6.50;;;5.90;;
10645;SDS011;5371;49.782;9.932;2022-07-30T08:12:25;4.80;;;4.32;;
10645;SDS011;5371;49.782;9.932;2022-07-30T08:15:11;4.82;;;4.40;;
10645;SDS011;5371;49.782;9.932;2022-07-30T08:18:01;6.20;;;3.97;;
10645;SDS011;5371;49.782;9.932;2022-07-30T08:20:39;4.75;;;4.22;;
10645;SDS011;5371;49.782;9.932;2022-07-30T08:23:07;5.93;;;3.95;;
10645;SDS011;5371;49.782;9.932;2022-07-30T08:25:34;4.72;;;4.32;;
10645;SDS011;5371;49.782;9.932;2022-07-30T08:28:01;4.82;;;4.32;;
10645;SDS011;5371;49.782;9.932;2022-07-30T08:30:28;4.82;;;4.43;;
10645;SDS011;5371;49.782;9.932;2022-07-30T08:32:56;4.43;;;4.03;;
10645;SDS011;5371;49.782;9.932;2022-07-30T08:35:23;4.75;;;4.28;;
10645;SDS011;5371;49.782;9.932;2022-07-30T08:37:51;5.70;;;4.85;;
10645;SDS011;5371;49.782;9.932;2022-07-30T08:40:21;5.05;;;4.55;;
10645;SDS011;5371;49.782;9.932;2022-07-30T08:43:01;6.18;;;4.55;;
10645;SDS011;5371;49.782;9.932;2022-07-30T08:45:29;5.38;;;4.38;;
10645;SDS011;5371;49.782;9.932;2022-07-30T08:48:03;5.15;;;4.65;;
10645;SDS011;5371;49.782;9.932;2022-07-30T08:50:40;7.38;;;4.53;;
10645;SDS011;5371;49.782;9.932;2022-07-30T08:53:29;4.50;;;3.95;;
10645;SDS011;5371;49.782;9.932;2022-07-30T08:55:58;4.47;;;3.92;;
10645;SDS011;5371;49.782;9.932;2022-07-30T08:58:27;4.85;;;4.15;;
10645;SDS011;5371;49.782;9.932;2022-07-30T09:00:55;6.97;;;3.97;;
10645;SDS011;5371;49.782;9.932;2022-07-30T09:03:27;6.45;;;4.53;;
10645;SDS011;5371;49.782;9.932;2022-07-30T09:05:58;4.55;;;4.15;;
10645;SDS011;5371;49.782;9.932;2022-07-30T09:08:31;5.22;;;4.60;;
10645;SDS011;5371;49.782;9.932;2022-07-30T09:10:58;4.93;;;4.40;;
10645;SDS011;5371;49.782;9.932;2022-07-30T09:13:26;5.40;;;4.45;;
10645;SDS011;5371;49.782;9.932;2022-07-30T09:15:57;6.15;;;4.63;;
10645;SDS011;5371;49.782;9.932;2022-07-30T09:18:26;6.22;;;4.90;;
10645;SDS011;5371;49.782;9.932;2022-07-30T09:20:54;5.15;;;4.47;;
10645;SDS011;5371;49.782;9.932;2022-07-30T09:23:22;8.48;;;4.82;;
10645;SDS011;5371;49.782;9.932;2022-07-30T09:26:09;7.13;;;4.75;;
10645;SDS011;5371;49.782;9.932;2022-07-30T09:31:59;10.05;;;4.50;;
10645;SDS011;5371;49.782;9.932;2022-07-30T09:34:54;9.23;;;4.20;;
10645;SDS011;5371;49.782;9.932;2022-07-30T09:37:40;9.55;;;4.55;;
10645;SDS011;5371;49.782;9.932;2022-07-30T09:40:48;5.90;;;4.63;;
10645;SDS011;5371;49.782;9.932;2022-07-30T09:43:55;6.88;;;4.15;;
10645;SDS011;5371;49.782;9.932;2022-07-30T09:46:40;6.75;;;4.47;;
10645;SDS011;5371;49.782;9.932;2022-07-30T09:49:12;7.05;;;4.90;;
10645;SDS011;5371;49.782;9.932;2022-07-30T09:51:40;6.28;;;5.00;;
10645;SDS011;5371;49.782;9.932;2022-07-30T09:54:07;7.00;;;4.90;;
10645;SDS011;5371;49.782;9.932;2022-07-30T09:56:37;5.97;;;4.68;;
10645;SDS011;5371;49.782;9.932;2022-07-30T09:59:06;9.88;;;4.70;;
10645;SDS011;5371;49.782;9.932;2022-07-30T10:01:51;6.57;;;4.30;;
10645;SDS011;5371;49.782;9.932;2022-07-30T10:04:42;8.50;;;4.30;;
10645;SDS011;5371;49.782;9.932;2022-07-30T10:07:18;8.20;;;4.13;;
10645;SDS011;5371;49.782;9.932;2022-07-30T10:09:48;6.15;;;4.30;;
10645;SDS011;5371;49.782;9.932;2022-07-30T10:12:16;7.97;;;4.07;;
10645;SDS011;5371;49.782;9.932;2022-07-30T10:14:48;7.35;;;4.55;;
10645;SDS011;5371;49.782;9.932;2022-07-30T10:17:18;6.13;;;3.90;;
10645;SDS011;5371;49.782;9.932;2022-07-30T10:20:10;7.40;;;3.85;;
10645;SDS011;5371;49.782;9.932;2022-07-30T10:22:44;6.55;;;3.95;;
10645;SDS011;5371;49.782;9.932;2022-07-30T10:25:31;4.50;;;3.65;;
10645;SDS011;5371;49.782;9.932;2022-07-30T10:27:58;5.22;;;3.88;;
10645;SDS011;5371;49.782;9.932;2022-07-30T10:30:29;6.63;;;3.80;;
10645;SDS011;5371;49.782;9.932;2022-07-30T10:32:58;7.35;;;4.03;;
10645;SDS011;5371;49.782;9.932;2022-07-30T10:35:25;9.45;;;4.10;;
10645;SDS011;5371;49.782;9.932;2022-07-30T10:37:52;8.65;;;3.85;;
10645;SDS011;5371;49.782;9.932;2022-07-30T10:40:25;5.10;;;4.15;;
10645;SDS011;5371;49.782;9.932;2022-07-30T10:46:01;6.15;;;3.55;;
10645;SDS011;5371;49.782;9.932;2022-07-30T10:48:35;5.15;;;3.88;;
10645;SDS011;5371;49.782;9.932;2022-07-30T10:51:02;5.85;;;3.80;;
10645;SDS011;5371;49.782;9.932;2022-07-30T10:53:33;5.43;;;3.40;;
10645;SDS011;5371;49.782;9.932;2022-07-30T10:56:15;6.15;;;3.28;;
10645;SDS011;5371;49.782;9.932;2022-07-30T10:58:56;5.53;;;3.50;;
10645;SDS011;5371;49.782;9.932;2022-07-30T11:04:35;4.28;;;3.30;;
10645;SDS011;5371;49.782;9.932;2022-07-30T11:09:59;5.25;;;3.17;;
10645;SDS011;5371;49.782;9.932;2022-07-30T11:15:19;4.00;;;3.10;;
10645;SDS011;5371;49.782;9.932;2022-07-30T11:18:04;7.05;;;3.42;;
10645;SDS011;5371;49.782;9.932;2022-07-30T11:20:33;4.22;;;3.00;;
10645;SDS011;5371;49.782;9.932;2022-07-30T11:23:07;2.75;;;2.50;;
10645;SDS011;5371;49.782;9.932;2022-07-30T11:25:38;3.75;;;2.75;;
10645;SDS011;5371;49.782;9.932;2022-07-30T11:28:07;5.80;;;2.85;;
10645;SDS011;5371;49.782;9.932;2022-07-30T11:31:01;4.65;;;2.60;;
10645;SDS011;5371;49.782;9.932;2022-07-30T11:33:30;4.50;;;3.00;;
10645;SDS011;5371;49.782;9.932;2022-07-30T11:36:03;5.55;;;2.97;;
10645;SDS011;5371;49.782;9.932;2022-07-30T11:41:16;5.63;;;3.15;;
10645;SDS011;5371;49.782;9.932;2022-07-30T11:43:45;4.55;;;3.10;;
10645;SDS011;5371;49.782;9.932;2022-07-30T11:46:12;4.60;;;3.20;;
10645;SDS011;5371;49.782;9.932;2022-07-30T11:48:55;3.20;;;2.90;;
10645;SDS011;5371;49.782;9.932;2022-07-30T11:51:24;4.03;;;3.63;;
10645;SDS011;5371;49.782;9.932;2022-07-30T11:54:00;4.22;;;3.83;;
10645;SDS011;5371;49.782;9.932;2022-07-30T11:56:28;5.75;;;3.85;;
10645;SDS011;5371;49.782;9.932;2022-07-30T11:59:02;5.63;;;3.42;;
10645;SDS011;5371;49.782;9.932;2022-07-30T12:01:30;5.63;;;3.72;;
10645;SDS011;5371;49.782;9.932;2022-07-30T12:04:02;3.85;;;3.45;;
10645;SDS011;5371;49.782;9.932;2022-07-30T12:06:30;5.60;;;4.20;;
10645;SDS011;5371;49.782;9.932;2022-07-30T12:09:00;6.65;;;3.83;;
10645;SDS011;5371;49.782;9.932;2022-07-30T12:11:30;8.52;;;4.30;;
10645;SDS011;5371;49.782;9.932;2022-07-30T12:13:58;9.45;;;3.75;;
10645;SDS011;5371;49.782;9.932;2022-07-30T12:16:27;4.53;;;4.13;;
10645;SDS011;5371;49.782;9.932;2022-07-30T12:18:59;6.65;;;3.70;;
10645;SDS011;5371;49.782;9.932;2022-07-30T12:21:31;6.57;;;4.05;;
10645;SDS011;5371;49.782;9.932;2022-07-30T12:23:59;5.35;;;4.10;;
10645;SDS011;5371;49.782;9.932;2022-07-30T12:26:28;4.68;;;4.03;;
10645;SDS011;5371;49.782;9.932;2022-07-30T12:28:56;6.20;;;3.97;;
10645;SDS011;5371;49.782;9.932;2022-07-30T12:31:26;7.97;;;4.10;;
10645;SDS011;5371;49.782;9.932;2022-07-30T12:33:53;6.22;;;4.10;;
10645;SDS011;5371;49.782;9.932;2022-07-30T12:36:24;7.45;;;4.20;;
10645;SDS011;5371;49.782;9.932;2022-07-30T12:38:52;6.60;;;3.97;;
10645;SDS011;5371;49.782;9.932;2022-07-30T12:41:22;5.00;;;4.47;;
10645;SDS011;5371;49.782;9.932;2022-07-30T12:44:05;6.05;;;4.13;;
10645;SDS011;5371;49.782;9.932;2022-07-30T12:46:36;4.40;;;4.00;;
10645;SDS011;5371;49.782;9.932;2022-07-30T12:49:05;3.92;;;3.63;;
10645;SDS011;5371;49.782;9.932;2022-07-30T12:51:34;4.93;;;3.70;;
10645;SDS011;5371;49.782;9.932;2022-07-30T12:54:12;5.55;;;3.97;;
10645;SDS011;5371;49.782;9.932;2022-07-30T12:56:40;4.65;;;4.15;;
10645;SDS011;5371;49.782;9.932;2022-07-30T12:59:21;4.60;;;3.92;;
10645;SDS011;5371;49.782;9.932;2022-07-30T13:01:50;4.43;;;3.80;;
10645;SDS011;5371;49.782;9.932;2022-07-30T13:04:18;6.43;;;4.82;;
10645;SDS011;5371;49.782;9.932;2022-07-30T13:09:32;7.32;;;4.25;;
10645;SDS011;5371;49.782;9.932;2022-07-30T13:12:00;5.22;;;4.13;;
10645;SDS011;5371;49.782;9.932;2022-07-30T13:14:27;5.93;;;4.20;;
10645;SDS011;5371;49.782;9.932;2022-07-30T13:16:55;7.95;;;4.40;;
10645;SDS011;5371;49.782;9.932;2022-07-30T13:19:23;5.18;;;4.00;;
10645;SDS011;5371;49.782;9.932;2022-07-30T13:21:50;5.38;;;3.90;;
10645;SDS011;5371;49.782;9.932;2022-07-30T13:24:19;7.57;;;3.80;;
10645;SDS011;5371;49.782;9.932;2022-07-30T13:26:47;4.90;;;3.90;;
10645;SDS011;5371;49.782;9.932;2022-07-30T13:29:14;8.25;;;4.10;;
10645;SDS011;5371;49.782;9.932;2022-07-30T13:31:41;4.32;;;3.70;;
10645;SDS011;5371;49.782;9.932;2022-07-30T13:34:08;6.20;;;4.03;;
10645;SDS011;5371;49.782;9.932;2022-07-30T13:36:35;5.50;;;3.60;;
10645;SDS011;5371;49.782;9.932;2022-07-30T13:39:02;4.85;;;3.70;;
10645;SDS011;5371;49.782;9.932;2022-07-30T13:41:31;5.25;;;3.55;;
10645;SDS011;5371;49.782;9.932;2022-07-30T13:44:03;5.35;;;4.28;;
10645;SDS011;5371;49.782;9.932;2022-07-30T13:46:30;5.97;;;3.80;;
10645;SDS011;5371;49.782;9.932;2022-07-30T13:48:57;4.47;;;3.65;;
10645;SDS011;5371;49.782;9.932;2022-07-30T13:51:24;4.88;;;3.70;;
10645;SDS011;5371;49.782;9.932;2022-07-30T13:53:51;4.60;;;3.83;;
10645;SDS011;5371;49.782;9.932;2022-07-30T13:56:18;5.40;;;4.18;;
10645;SDS011;5371;49.782;9.932;2022-07-30T13:58:47;4.18;;;3.78;;
10645;SDS011;5371;49.782;9.932;2022-07-30T14:01:14;5.13;;;3.80;;
10645;SDS011;5371;49.782;9.932;2022-07-30T14:03:41;7.60;;;3.63;;
10645;SDS011;5371;49.782;9.932;2022-07-30T14:06:08;5.28;;;3.90;;
10645;SDS011;5371;49.782;9.932;2022-07-30T14:08:35;7.25;;;4.30;;
10645;SDS011;5371;49.782;9.932;2022-07-30T14:11:02;6.35;;;3.55;;
10645;SDS011;5371;49.782;9.932;2022-07-30T14:13:29;4.20;;;3.90;;
10645;SDS011;5371;49.782;9.932;2022-07-30T14:15:57;4.28;;;3.88;;
10645;SDS011;5371;49.782;9.932;2022-07-30T14:18:24;4.53;;;4.10;;
10645;SDS011;5371;49.782;9.932;2022-07-30T14:20:51;4.65;;;3.60;;
10645;SDS011;5371;49.782;9.932;2022-07-30T14:23:18;5.97;;;4.13;;
10645;SDS011;5371;49.782;9.932;2022-07-30T14:25:46;7.68;;;4.43;;
10645;SDS011;5371;49.782;9.932;2022-07-30T14:28:13;6.18;;;4.07;;
10645;SDS011;5371;49.782;9.932;2022-07-30T14:30:40;5.50;;;3.75;;
10645;SDS011;5371;49.782;9.932;2022-07-30T14:33:09;4.93;;;4.40;;
10645;SDS011;5371;49.782;9.932;2022-07-30T14:35:36;4.80;;;3.92;;
10645;SDS011;5371;49.782;9.932;2022-07-30T14:38:03;8.80;;;3.90;;
10645;SDS011;5371;49.782;9.932;2022-07-30T14:40:30;6.53;;;3.80;;
10645;SDS011;5371;49.782;9.932;2022-07-30T14:42:57;4.22;;;3.83;;
10645;SDS011;5371;49.782;9.932;2022-07-30T14:45:24;4.95;;;3.97;;
10645;SDS011;5371;49.782;9.932;2022-07-30T14:47:51;6.47;;;3.97;;
10645;SDS011;5371;49.782;9.932;2022-07-30T14:50:20;6.65;;;5.85;;
10645;SDS011;5371;49.782;9.932;2022-07-30T14:52:47;8.23;;;7.10;;
10645;SDS011;5371;49.782;9.932;2022-07-30T14:55:14;6.88;;;4.40;;
10645;SDS011;5371;49.782;9.932;2022-07-30T14:57:41;4.78;;;3.90;;
10645;SDS011;5371;49.782;9.932;2022-07-30T15:00:09;5.15;;;3.78;;
10645;SDS011;5371;49.782;9.932;2022-07-30T15:02:37;5.88;;;3.67;;
10645;SDS011;5371;49.782;9.932;2022-07-30T15:05:05;8.90;;;4.20;;
10645;SDS011;5371;49.782;9.932;2022-07-30T15:07:35;5.57;;;3.47;;
10645;SDS011;5371;49.782;9.932;2022-07-30T15:10:02;5.57;;;4.05;;
10645;SDS011;5371;49.782;9.932;2022-07-30T15:12:31;4.78;;;3.70;;
10645;SDS011;5371;49.782;9.932;2022-07-30T15:14:58;4.40;;;3.83;;
10645;SDS011;5371;49.782;9.932;2022-07-30T15:17:25;6.50;;;4.03;;
10645;SDS011;5371;49.782;9.932;2022-07-30T15:19:52;12.60;;;3.97;;
10645;SDS011;5371;49.782;9.932;2022-07-30T15:22:19;5.68;;;4.00;;
10645;SDS011;5371;49.782;9.932;2022-07-30T15:24:49;6.85;;;3.42;;
10645;SDS011;5371;49.782;9.932;2022-07-30T15:27:16;5.90;;;3.80;;
10645;SDS011;5371;49.782;9.932;2022-07-30T15:29:42;5.13;;;3.88;;
10645;SDS011;5371;49.782;9.932;2022-07-30T15:32:09;3.72;;;3.30;;
10645;SDS011;5371;49.782;9.932;2022-07-30T15:34:36;8.10;;;3.78;;
10645;SDS011;5371;49.782;9.932;2022-07-30T15:37:03;4.97;;;3.95;;